createdAt,value
2018-04-29T00:00:57.479Z,11.70
2018-04-29T00:03:23.747Z,11.70
2018-04-29T00:05:49.981Z,11.80
2018-04-29T00:08:16.193Z,11.70
2018-04-29T00:10:42.518Z,11.70
2018-04-29T00:13:08.787Z,11.50
2018-04-29T00:15:35.216Z,11.60
2018-04-29T00:18:01.521Z,11.60
2018-04-29T00:20:27.852Z,11.60
2018-04-29T00:22:54.128Z,11.50
2018-04-29T00:25:20.501Z,11.50
2018-04-29T00:27:46.743Z,11.50
2018-04-29T00:30:12.987Z,11.40
2018-04-29T00:32:39.243Z,11.40
2018-04-29T00:35:05.470Z,11.40
2018-04-29T00:37:32.691Z,11.30
2018-04-29T00:39:59.052Z,11.30
2018-04-29T00:42:25.345Z,11.20
2018-04-29T00:44:51.800Z,11.20
2018-04-29T00:47:18.042Z,11.20
2018-04-29T00:49:44.327Z,11.20
2018-04-29T00:52:10.724Z,11.20
2018-04-29T00:54:37.122Z,11.20
2018-04-29T00:57:03.397Z,11.20
2018-04-29T00:59:29.658Z,11.10
2018-04-29T01:01:56.653Z,11.10
2018-04-29T01:04:22.943Z,11.00
2018-04-29T01:06:49.416Z,11.00
2018-04-29T01:09:15.672Z,11.00
2018-04-29T01:11:41.935Z,10.90
2018-04-29T01:14:08.249Z,10.80
2018-04-29T01:16:34.538Z,10.90
2018-04-29T01:19:01.019Z,10.80
2018-04-29T01:21:28.070Z,10.70
2018-04-29T01:23:55.128Z,10.70
2018-04-29T01:26:21.521Z,10.70
2018-04-29T01:28:47.792Z,10.50
2018-04-29T01:31:14.116Z,10.40
2018-04-29T01:33:40.339Z,10.40
2018-04-29T01:36:06.676Z,10.50
2018-04-29T01:38:32.908Z,10.40
2018-04-29T01:40:59.206Z,10.40
2018-04-29T01:46:20.562Z,10.20
2018-04-29T01:48:48.759Z,10.20
2018-04-29T01:51:15.835Z,10.30
2018-04-29T01:53:42.542Z,10.40
2018-04-29T01:56:09.198Z,10.30
2018-04-29T01:58:36.082Z,10.30
2018-04-29T02:01:02.709Z,10.20
2018-04-29T02:03:29.612Z,10.20
2018-04-29T02:05:56.071Z,10.20
2018-04-29T02:08:22.372Z,10.20
2018-04-29T02:10:48.619Z,10.20
2018-04-29T02:13:14.995Z,10.20
2018-04-29T02:15:41.312Z,10.10
2018-04-29T02:18:08.221Z,10.10
2018-04-29T02:20:34.833Z,10.10
2018-04-29T02:23:01.407Z,10.00
2018-04-29T02:25:32.539Z,10.10
2018-04-29T02:30:45.910Z,10.00
2018-04-29T02:33:13.178Z,10.00
2018-04-29T02:35:40.300Z,9.90
2018-04-29T02:38:06.741Z,9.90
2018-04-29T02:40:33.756Z,9.90
2018-04-29T02:43:00.238Z,9.90
2018-04-29T02:45:26.810Z,9.90
2018-04-29T02:47:53.161Z,9.90
2018-04-29T02:50:19.683Z,9.80
2018-04-29T02:52:46.079Z,9.90
2018-04-29T02:55:13.782Z,9.80
2018-04-29T02:57:41.559Z,9.90
2018-04-29T03:00:08.378Z,9.80
2018-04-29T03:02:34.922Z,9.90
2018-04-29T03:05:01.201Z,9.80
2018-04-29T03:07:27.396Z,9.80
2018-04-29T03:09:53.811Z,9.80
2018-04-29T03:12:20.072Z,9.80
2018-04-29T03:14:46.315Z,9.80
2018-04-29T03:17:12.576Z,9.70
2018-04-29T03:19:38.786Z,9.70
2018-04-29T03:22:05.027Z,9.70
2018-04-29T03:24:31.335Z,9.70
2018-04-29T03:26:57.591Z,9.70
2018-04-29T03:29:23.896Z,9.70
2018-04-29T03:31:50.316Z,9.70
2018-04-29T03:34:17.457Z,9.70
2018-04-29T03:36:43.798Z,9.70
2018-04-29T03:39:09.979Z,9.70
2018-04-29T03:41:36.248Z,9.70
2018-04-29T03:44:02.524Z,9.70
2018-04-29T03:46:28.776Z,9.70
2018-04-29T03:48:55.053Z,9.70
2018-04-29T03:51:21.307Z,9.70
2018-04-29T03:53:48.385Z,9.60
2018-04-29T03:56:14.849Z,9.60
2018-04-29T03:58:53.818Z,9.60
2018-04-29T04:01:32.336Z,9.50
2018-04-29T04:04:12.888Z,9.50
2018-04-29T04:06:44.847Z,9.50
2018-04-29T04:09:12.518Z,9.60
2018-04-29T04:11:50.745Z,9.50
2018-04-29T04:14:23.333Z,9.60
2018-04-29T04:16:50.911Z,9.50
2018-04-29T04:19:21.101Z,9.50
2018-04-29T04:21:48.571Z,9.50
2018-04-29T04:24:20.723Z,9.40
2018-04-29T04:26:47.474Z,9.50
2018-04-29T04:29:15.258Z,9.50
2018-04-29T04:31:41.764Z,9.50
2018-04-29T04:34:08.200Z,9.50
2018-04-29T04:36:36.327Z,9.60
2018-04-29T04:39:03.410Z,9.60
2018-04-29T04:41:29.796Z,9.60
2018-04-29T04:43:56.128Z,9.70
2018-04-29T04:46:22.364Z,9.70
2018-04-29T04:48:49.006Z,9.70
2018-04-29T04:51:15.413Z,9.80
2018-04-29T04:53:41.779Z,9.80
2018-04-29T04:56:08.196Z,9.90
2018-04-29T04:58:34.659Z,9.90
2018-04-29T05:01:01.073Z,9.90
2018-04-29T05:03:27.372Z,10.00
2018-04-29T05:05:53.789Z,10.00
2018-04-29T05:08:20.000Z,10.10
2018-04-29T05:10:46.423Z,10.20
2018-04-29T05:13:12.619Z,10.30
2018-04-29T05:15:41.218Z,10.30
2018-04-29T05:18:07.676Z,10.40
2018-04-29T05:20:43.054Z,10.50
2018-04-29T05:23:09.671Z,10.60
2018-04-29T05:25:38.744Z,10.70
2018-04-29T05:28:06.440Z,10.90
2018-04-29T05:30:33.732Z,10.80
2018-04-29T05:33:01.557Z,11.00
2018-04-29T05:35:31.496Z,11.00
2018-04-29T05:37:58.656Z,11.20
2018-04-29T05:40:36.853Z,11.20
2018-04-29T05:43:08.830Z,11.40
2018-04-29T05:45:50.711Z,11.70
2018-04-29T05:48:23.583Z,11.90
2018-04-29T05:53:52.336Z,12.40
2018-04-29T05:56:22.345Z,12.40
2018-04-29T05:58:52.529Z,12.60
2018-04-29T06:01:21.832Z,12.70
2018-04-29T06:03:51.074Z,12.80
2018-04-29T06:06:22.603Z,12.70
2018-04-29T06:08:51.091Z,12.50
2018-04-29T06:11:20.517Z,12.50
2018-04-29T06:13:50.827Z,12.40
2018-04-29T06:16:21.249Z,12.30
2018-04-29T06:18:52.280Z,12.30
2018-04-29T06:21:21.447Z,12.30
2018-04-29T06:23:51.012Z,12.30
2018-04-29T06:26:18.702Z,12.40
2018-04-29T06:28:45.729Z,12.30
2018-04-29T06:31:11.965Z,12.30
2018-04-29T06:33:38.768Z,12.20
2018-04-29T06:36:06.091Z,12.20
2018-04-29T06:38:36.702Z,12.20
2018-04-29T06:41:10.395Z,12.10
2018-04-29T06:43:49.763Z,11.90
2018-04-29T06:46:22.091Z,11.90
2018-04-29T06:48:51.689Z,11.90
2018-04-29T06:51:18.885Z,11.90
2018-04-29T06:53:51.522Z,11.90
2018-04-29T06:56:18.454Z,11.80
2018-04-29T06:58:45.011Z,11.90
2018-04-29T07:01:15.207Z,12.10
2018-04-29T07:03:50.851Z,12.20
2018-04-29T07:06:21.915Z,12.30
2018-04-29T07:08:48.567Z,12.40
2018-04-29T07:11:16.172Z,12.60
2018-04-29T07:13:42.841Z,12.60
2018-04-29T07:16:20.578Z,12.70
2018-04-29T07:18:47.054Z,12.90
2018-04-29T07:21:14.830Z,13.00
2018-04-29T07:23:41.694Z,13.20
2018-04-29T07:26:21.540Z,13.30
2018-04-29T07:28:48.248Z,13.50
2018-04-29T07:31:18.375Z,13.70
2018-04-29T07:33:50.734Z,13.80
2018-04-29T07:36:23.541Z,14.00
2018-04-29T07:38:51.240Z,14.20
2018-04-29T07:41:17.558Z,14.10
2018-04-29T07:43:44.313Z,14.10
2018-04-29T07:46:10.495Z,14.30
2018-04-29T07:48:36.873Z,14.30
2018-04-29T07:51:03.092Z,14.40
2018-04-29T07:53:29.376Z,14.20
2018-04-29T07:55:55.881Z,14.20
2018-04-29T07:58:22.359Z,14.20
2018-04-29T08:00:48.811Z,14.10
2018-04-29T08:03:14.964Z,14.20
2018-04-29T08:05:42.037Z,14.30
2018-04-29T08:08:09.430Z,14.30
2018-04-29T08:10:35.915Z,14.30
2018-04-29T08:13:02.166Z,14.30
2018-04-29T08:15:28.468Z,14.20
2018-04-29T08:17:55.408Z,14.30
2018-04-29T08:20:21.686Z,14.20
2018-04-29T08:22:47.946Z,14.30
2018-04-29T08:25:14.128Z,14.50
2018-04-29T08:27:40.379Z,14.50
2018-04-29T08:30:06.727Z,14.60
2018-04-29T08:32:32.902Z,14.60
2018-04-29T08:34:59.185Z,14.50
2018-04-29T08:37:25.423Z,14.50
2018-04-29T08:39:52.463Z,14.50
2018-04-29T08:42:18.719Z,14.50
2018-04-29T08:44:44.907Z,14.40
2018-04-29T08:47:11.151Z,14.40
2018-04-29T08:49:37.487Z,14.40
2018-04-29T08:52:03.776Z,14.30
2018-04-29T08:54:30.006Z,14.50
2018-04-29T08:56:56.275Z,14.40
2018-04-29T08:59:22.456Z,14.50
2018-04-29T09:01:48.662Z,14.50
2018-04-29T09:04:14.887Z,14.40
2018-04-29T09:06:41.142Z,14.40
2018-04-29T09:09:07.382Z,14.40
2018-04-29T09:11:33.549Z,14.40
2018-04-29T09:13:59.872Z,14.50
2018-04-29T09:16:26.085Z,14.30
2018-04-29T09:18:53.178Z,14.90
2018-04-29T09:21:19.376Z,14.90
2018-04-29T09:23:45.636Z,15.20
2018-04-29T09:26:12.575Z,15.40
2018-04-29T09:28:38.785Z,15.40
2018-04-29T09:31:05.006Z,15.50
2018-04-29T09:33:31.202Z,15.50
2018-04-29T09:35:57.400Z,15.40
2018-04-29T09:38:23.642Z,15.80
2018-04-29T09:40:50.037Z,16.20
2018-04-29T09:43:16.287Z,16.30
2018-04-29T09:45:43.371Z,16.30
2018-04-29T09:48:09.625Z,16.30
2018-04-29T09:50:35.866Z,16.30
2018-04-29T09:53:02.140Z,16.40
2018-04-29T09:55:28.347Z,16.50
2018-04-29T09:57:54.530Z,16.60
2018-04-29T10:00:25.661Z,16.60
2018-04-29T10:02:53.082Z,16.70
2018-04-29T10:05:19.874Z,16.80
2018-04-29T10:07:46.129Z,17.00
2018-04-29T10:10:13.613Z,17.10
2018-04-29T10:12:51.325Z,17.20
2018-04-29T10:15:18.610Z,17.20
2018-04-29T10:17:44.919Z,17.40
2018-04-29T10:20:11.171Z,17.40
2018-04-29T10:22:37.445Z,17.40
2018-04-29T10:25:05.474Z,17.50
2018-04-29T10:27:32.795Z,17.40
2018-04-29T10:29:59.793Z,17.70
2018-04-29T10:32:26.041Z,17.70
2018-04-29T10:34:53.454Z,18.10
2018-04-29T10:37:19.686Z,18.30
2018-04-29T10:39:45.911Z,18.60
2018-04-29T10:42:12.308Z,18.80
2018-04-29T10:44:38.569Z,18.70
2018-04-29T10:47:04.849Z,18.80
2018-04-29T10:49:31.128Z,19.10
2018-04-29T10:51:58.102Z,19.20
2018-04-29T10:54:24.364Z,19.20
2018-04-29T10:56:50.543Z,19.40
2018-04-29T10:59:16.727Z,19.60
2018-04-29T11:01:42.961Z,19.80
2018-04-29T11:04:09.233Z,20.00
2018-04-29T11:06:35.420Z,20.10
2018-04-29T11:09:01.675Z,20.20
2018-04-29T11:11:29.747Z,20.50
2018-04-29T11:13:56.791Z,20.70
2018-04-29T11:16:23.056Z,20.70
2018-04-29T11:18:50.211Z,20.90
2018-04-29T11:21:18.620Z,20.90
2018-04-29T11:23:46.840Z,21.30
2018-04-29T11:26:13.145Z,21.40
2018-04-29T11:28:39.502Z,21.70
2018-04-29T11:31:05.698Z,21.80
2018-04-29T11:33:31.974Z,22.00
2018-04-29T11:35:58.419Z,22.20
2018-04-29T11:38:24.668Z,22.40
2018-04-29T11:40:51.806Z,22.60
2018-04-29T11:43:22.121Z,22.70
2018-04-29T11:45:49.741Z,23.00
2018-04-29T11:48:18.450Z,23.20
2018-04-29T11:50:45.500Z,23.40
2018-04-29T11:53:13.968Z,23.40
2018-04-29T11:55:41.959Z,23.60
2018-04-29T11:58:08.201Z,23.90
2018-04-29T12:00:37.109Z,24.20
2018-04-29T12:03:04.408Z,24.40
2018-04-29T12:05:32.644Z,24.60
2018-04-29T12:08:01.142Z,25.20
2018-04-29T12:13:05.356Z,25.50
2018-04-29T12:15:32.525Z,26.00
2018-04-29T12:17:59.084Z,26.20
2018-04-29T12:20:29.246Z,26.50
2018-04-29T12:23:01.972Z,26.70
2018-04-29T12:25:31.808Z,27.00
2018-04-29T12:28:03.168Z,27.20
2018-04-29T12:30:35.705Z,27.50
2018-04-29T12:33:04.981Z,27.70
2018-04-29T12:35:35.557Z,28.10
2018-04-29T12:40:53.169Z,28.30
2018-04-29T12:43:20.789Z,28.70
2018-04-29T12:45:50.929Z,28.60
2018-04-29T12:48:21.342Z,29.00
2018-04-29T12:50:51.041Z,29.50
2018-04-29T12:53:20.922Z,29.40
2018-04-29T12:55:53.148Z,29.70
2018-04-29T12:58:22.652Z,29.80
2018-04-29T13:00:50.744Z,29.90
2018-04-29T13:03:20.862Z,29.90
2018-04-29T13:05:49.452Z,29.90
2018-04-29T13:08:16.216Z,30.10
2018-04-29T13:10:50.793Z,30.10
2018-04-29T13:13:19.180Z,30.00
2018-04-29T13:15:51.819Z,30.40
2018-04-29T13:18:21.236Z,30.30
2018-04-29T13:20:48.339Z,30.40
2018-04-29T13:23:20.504Z,30.90
2018-04-29T13:25:50.851Z,30.70
2018-04-29T13:28:17.498Z,29.80
2018-04-29T13:30:47.030Z,30.70
2018-04-29T13:33:13.415Z,31.00
2018-04-29T13:35:51.843Z,31.10
2018-04-29T13:38:21.014Z,31.00
2018-04-29T13:40:48.000Z,31.10
2018-04-29T13:43:14.728Z,30.70
2018-04-29T13:45:42.060Z,30.70
2018-04-29T13:48:08.305Z,30.70
2018-04-29T13:50:35.262Z,30.40
2018-04-29T13:53:06.113Z,30.30
2018-04-29T13:55:37.777Z,30.40
2018-04-29T13:58:06.914Z,29.80
2018-04-29T14:00:38.389Z,29.60
2018-04-29T14:03:09.421Z,29.30
2018-04-29T14:05:37.436Z,29.10
2018-04-29T14:08:05.369Z,28.80
2018-04-29T14:10:31.966Z,28.50
2018-04-29T14:15:37.692Z,28.10
2018-04-29T14:18:06.766Z,27.60
2018-04-29T14:20:36.345Z,27.40
2018-04-29T14:23:04.388Z,27.20
2018-04-29T14:25:31.753Z,27.10
2018-04-29T14:30:53.518Z,26.90
2018-04-29T14:33:21.039Z,26.70
2018-04-29T14:35:50.905Z,26.50
2018-04-29T14:38:21.614Z,26.50
2018-04-29T14:40:49.125Z,26.50
2018-04-29T14:43:21.544Z,26.40
2018-04-29T14:45:54.107Z,26.30
2018-04-29T14:48:20.844Z,26.30
2018-04-29T14:50:48.361Z,26.30
2018-04-29T14:53:15.328Z,26.20
2018-04-29T14:55:42.859Z,26.10
2018-04-29T15:00:43.129Z,26.00
2018-04-29T15:03:13.986Z,26.00
2018-04-29T15:05:42.670Z,25.90
2018-04-29T15:08:20.808Z,25.90
2018-04-29T15:13:21.014Z,25.70
2018-04-29T15:15:51.928Z,25.60
2018-04-29T15:21:21.845Z,25.40
2018-04-29T15:23:50.239Z,25.50
2018-04-29T15:26:23.322Z,25.40
2018-04-29T15:28:51.090Z,25.40
2018-04-29T15:31:21.115Z,25.40
2018-04-29T15:33:51.048Z,25.50
2018-04-29T15:36:19.052Z,25.50
2018-04-29T15:38:51.404Z,25.40
2018-04-29T15:41:20.898Z,25.40
2018-04-29T15:43:51.503Z,25.40
2018-04-29T15:46:21.837Z,25.40
2018-04-29T15:48:51.969Z,25.40
2018-04-29T15:51:21.764Z,25.40
2018-04-29T15:53:51.232Z,25.40
2018-04-29T15:56:21.489Z,25.30
2018-04-29T15:58:51.528Z,25.30
2018-04-29T16:01:21.913Z,25.30
2018-04-29T16:03:51.238Z,25.30
2018-04-29T16:06:19.551Z,25.30
2018-04-29T16:08:52.305Z,25.20
2018-04-29T16:11:21.568Z,25.20
2018-04-29T16:13:50.367Z,25.30
2018-04-29T16:16:21.164Z,25.20
2018-04-29T16:18:51.986Z,25.20
2018-04-29T16:21:21.161Z,25.20
2018-04-29T16:23:52.641Z,25.20
2018-04-29T16:26:29.356Z,25.20
2018-04-29T16:29:03.279Z,25.20
2018-04-29T16:34:04.358Z,25.10
2018-04-29T16:36:43.294Z,25.00
2018-04-29T16:39:22.698Z,25.00
2018-04-29T16:41:51.583Z,25.00
2018-04-29T16:44:21.267Z,25.00
2018-04-29T16:46:51.010Z,25.00
2018-04-29T16:51:51.158Z,24.80
2018-04-29T16:54:22.417Z,24.70
2018-04-29T16:56:52.454Z,24.70
2018-04-29T16:59:22.622Z,24.70
2018-04-29T17:11:01.484Z,24.30
2018-04-29T17:16:21.424Z,24.20
2018-04-29T17:18:53.949Z,24.10
2018-04-29T17:21:21.332Z,24.10
2018-04-29T17:23:53.556Z,24.20
2018-04-29T17:26:19.900Z,24.20
2018-04-29T17:28:49.236Z,24.30
2018-04-29T17:31:15.881Z,24.30
2018-04-29T17:33:42.519Z,24.30
2018-04-29T17:36:08.780Z,24.40
2018-04-29T17:38:35.012Z,24.40
2018-04-29T17:41:01.220Z,24.30
2018-04-29T17:43:27.419Z,24.20
2018-04-29T17:45:53.662Z,24.20
2018-04-29T17:48:19.869Z,24.20
2018-04-29T17:50:46.244Z,24.10
2018-04-29T17:53:13.978Z,24.00
2018-04-29T17:55:41.711Z,23.80
2018-04-29T17:58:07.895Z,23.80
2018-04-29T18:00:35.232Z,23.70
2018-04-29T18:03:01.479Z,23.70
2018-04-29T18:05:27.740Z,23.60
2018-04-29T18:07:54.728Z,23.40
2018-04-29T18:10:21.124Z,23.40
2018-04-29T18:12:47.276Z,23.40
2018-04-29T18:15:13.510Z,23.20
2018-04-29T18:17:39.734Z,23.10
2018-04-29T18:20:08.068Z,23.00
2018-04-29T18:22:34.286Z,22.90
2018-04-29T18:25:00.497Z,22.80
2018-04-29T18:27:26.742Z,22.70
2018-04-29T18:29:53.032Z,22.50
2018-04-29T18:32:19.265Z,22.50
2018-04-29T18:34:46.193Z,22.30
2018-04-29T18:37:12.400Z,22.30
2018-04-29T18:39:38.652Z,22.20
2018-04-29T18:42:04.833Z,22.20
2018-04-29T18:44:31.390Z,22.00
2018-04-29T18:46:57.607Z,22.00
2018-04-29T18:49:23.849Z,21.90
2018-04-29T18:51:50.065Z,21.80
2018-04-29T18:54:16.286Z,21.80
2018-04-29T18:56:42.668Z,21.70
2018-04-29T18:59:08.895Z,21.60
2018-04-29T19:01:35.147Z,21.50
2018-04-29T19:04:01.328Z,21.50
2018-04-29T19:06:27.554Z,21.30
2018-04-29T19:08:53.772Z,21.30
2018-04-29T19:11:20.400Z,21.20
2018-04-29T19:13:46.674Z,21.10
2018-04-29T19:16:15.068Z,21.10
2018-04-29T19:21:21.739Z,20.90
2018-04-29T19:23:49.204Z,20.90
2018-04-29T19:26:15.618Z,20.80
2018-04-29T19:28:41.878Z,20.80
2018-04-29T19:31:08.819Z,20.80
2018-04-29T19:33:35.026Z,20.80
2018-04-29T19:36:01.204Z,20.70
2018-04-29T19:38:27.417Z,20.70
2018-04-29T19:40:53.715Z,20.60
2018-04-29T19:43:20.334Z,20.60
2018-04-29T19:45:47.318Z,20.50
2018-04-29T19:48:13.537Z,20.50
2018-04-29T19:50:39.894Z,20.50
2018-04-29T19:53:06.861Z,20.40
2018-04-29T19:55:39.106Z,20.40
2018-04-29T19:58:06.272Z,20.30
2018-04-29T20:00:32.771Z,20.30
2018-04-29T20:03:00.356Z,20.20
2018-04-29T20:05:33.601Z,20.10
2018-04-29T20:08:03.445Z,20.10
2018-04-29T20:13:38.004Z,19.90
2018-04-29T20:16:05.739Z,19.90
2018-04-29T20:18:33.031Z,19.90
2018-04-29T20:21:04.505Z,19.80
2018-04-29T20:23:51.776Z,19.70
2018-04-29T20:26:22.143Z,19.70
2018-04-29T20:28:51.875Z,19.70
2018-04-29T20:34:07.824Z,19.60
2018-04-29T20:36:34.137Z,19.60
2018-04-29T20:39:00.342Z,19.60
2018-04-29T20:41:26.668Z,19.50
2018-04-29T20:43:53.025Z,19.50
2018-04-29T20:46:23.150Z,19.50
2018-04-29T20:48:52.657Z,19.40
2018-04-29T20:51:22.915Z,19.40
2018-04-29T20:53:53.327Z,19.30
2018-04-29T20:56:21.408Z,19.30
2018-04-29T20:58:47.652Z,19.30
2018-04-29T21:01:13.887Z,19.30
2018-04-29T21:03:40.121Z,19.30
2018-04-29T21:06:07.403Z,19.20
2018-04-29T21:08:34.671Z,19.20
2018-04-29T21:11:00.874Z,19.10
2018-04-29T21:13:27.144Z,19.10
2018-04-29T21:15:53.364Z,19.10
2018-04-29T21:18:19.596Z,19.10
2018-04-29T21:20:45.789Z,19.10
2018-04-29T21:23:22.298Z,19.00
2018-04-29T21:25:51.814Z,19.00
2018-04-29T21:28:21.649Z,18.90
2018-04-29T21:30:50.888Z,18.90
2018-04-29T21:33:22.130Z,18.80
2018-04-29T21:35:51.672Z,18.80
2018-04-29T21:38:22.899Z,18.70
2018-04-29T21:40:53.162Z,18.60
2018-04-29T21:43:23.960Z,18.60
2018-04-29T21:45:51.542Z,18.60
2018-04-29T21:48:23.906Z,18.60
2018-04-29T21:50:51.679Z,18.60
2018-04-29T21:53:21.738Z,18.50
2018-04-29T21:55:54.110Z,18.60
2018-04-29T21:58:21.645Z,18.50
2018-04-29T22:00:52.972Z,18.50
2018-04-29T22:03:20.962Z,18.50
2018-04-29T22:08:22.405Z,18.50
2018-04-29T22:10:51.898Z,18.50
2018-04-29T22:13:25.179Z,18.50
2018-04-29T22:15:52.497Z,18.50
2018-04-29T22:18:21.812Z,18.50
2018-04-29T22:20:48.035Z,18.50
2018-04-29T22:23:14.780Z,18.50
2018-04-29T22:25:45.703Z,18.50
2018-04-29T22:28:11.980Z,18.60
2018-04-29T22:30:38.650Z,18.60
2018-04-29T22:33:04.982Z,18.60
2018-04-29T22:35:31.697Z,18.60
2018-04-29T22:37:58.116Z,18.60
2018-04-29T22:40:24.380Z,18.60
2018-04-29T22:42:50.930Z,18.60
2018-04-29T22:45:19.372Z,18.60
2018-04-29T22:47:48.566Z,18.60
2018-04-29T22:50:15.006Z,18.60
2018-04-29T22:52:55.369Z,18.60
2018-04-29T22:55:21.832Z,18.60
2018-04-29T22:57:48.151Z,18.60
2018-04-29T23:00:14.595Z,18.60
2018-04-29T23:02:41.029Z,18.60
2018-04-29T23:05:07.559Z,18.60
2018-04-29T23:07:35.650Z,18.70
2018-04-29T23:10:01.978Z,18.70
2018-04-29T23:12:28.220Z,18.70
2018-04-29T23:14:54.609Z,18.70
2018-04-29T23:17:20.837Z,18.70
2018-04-29T23:19:47.383Z,18.70
2018-04-29T23:22:13.797Z,18.80
2018-04-29T23:24:41.599Z,18.90
2018-04-29T23:27:11.417Z,18.90
2018-04-29T23:29:41.282Z,19.00
2018-04-29T23:32:08.404Z,19.00
2018-04-29T23:34:35.177Z,19.10
2018-04-29T23:37:02.588Z,19.10
2018-04-29T23:39:29.558Z,19.20
2018-04-29T23:41:57.197Z,19.20
2018-04-29T23:44:23.539Z,19.20
2018-04-29T23:46:50.313Z,19.30
2018-04-29T23:49:22.612Z,19.20
2018-04-29T23:51:48.961Z,19.40
2018-04-29T23:54:15.603Z,19.60
2018-04-29T23:56:45.133Z,19.70
2018-04-29T23:59:21.359Z,19.60
